createdAt,value
2018-02-15T07:55:52.901Z,79.74
2018-02-15T08:29:22.981Z,75.78
2018-02-15T09:06:19.559Z,73.54
2018-02-15T09:30:54.241Z,74.60
2018-02-15T09:33:30.357Z,75.16
2018-02-15T09:37:03.947Z,75.19
2018-02-15T09:43:06.117Z,74.97
2018-02-15T09:48:59.370Z,74.90
2018-02-15T09:59:01.127Z,72.53
2018-02-15T10:01:31.837Z,70.92
2018-02-15T10:04:04.400Z,70.30
2018-02-15T10:06:53.086Z,69.58
2018-02-15T10:21:26.039Z,65.92
2018-02-15T10:23:57.457Z,65.45
2018-02-15T10:26:26.446Z,63.64
2018-02-15T10:28:55.138Z,63.12
2018-02-15T10:31:26.511Z,63.95
2018-02-15T10:33:54.212Z,62.54
2018-02-15T10:36:23.612Z,62.69
2018-02-15T10:38:51.326Z,62.34
2018-02-15T10:41:19.336Z,62.25
2018-02-15T10:43:47.115Z,62.12
2018-02-15T10:46:15.027Z,61.22
2018-02-15T10:48:42.765Z,59.79
2018-02-15T10:51:10.525Z,59.80
2018-02-15T10:53:38.284Z,60.62
2018-02-15T10:56:06.044Z,60.77
2018-02-15T10:58:34.680Z,61.01
2018-02-15T11:01:07.892Z,60.90
2018-02-15T11:03:35.805Z,61.17
2018-02-15T11:06:03.530Z,62.29
2018-02-15T11:08:31.296Z,59.93
2018-02-15T11:10:59.138Z,61.39
2018-02-15T11:13:26.844Z,61.17
2018-02-15T11:15:54.563Z,60.91
2018-02-15T11:18:22.300Z,60.34
2018-02-15T11:20:50.044Z,59.95
2018-02-15T11:23:17.744Z,59.59
2018-02-15T11:25:45.464Z,59.21
2018-02-15T11:28:13.836Z,57.84
2018-02-15T11:30:41.543Z,58.71
2018-02-15T11:33:09.255Z,57.72
2018-02-15T11:35:36.997Z,55.13
2018-02-15T11:38:04.730Z,57.20
2018-02-15T11:40:33.382Z,56.52
2018-02-15T11:43:01.132Z,55.12
2018-02-15T11:45:28.821Z,56.48
2018-02-15T11:47:56.568Z,55.83
2018-02-15T11:50:24.266Z,55.51
2018-02-15T11:52:51.978Z,55.09
2018-02-15T11:55:19.740Z,53.93
2018-02-15T11:57:47.434Z,53.11
2018-02-15T12:00:15.213Z,54.23
2018-02-15T12:02:42.911Z,53.98
2018-02-15T12:05:10.663Z,52.69
2018-02-15T12:07:38.408Z,54.44
2018-02-15T12:10:06.231Z,54.78
2018-02-15T12:12:33.932Z,54.23
2018-02-15T12:15:01.658Z,54.77
2018-02-15T12:17:29.431Z,54.99
2018-02-15T12:19:57.145Z,53.37
2018-02-15T12:22:24.949Z,51.87
2018-02-15T12:24:52.837Z,51.83
2018-02-15T12:27:20.620Z,52.89
2018-02-15T12:29:48.343Z,52.67
2018-02-15T12:32:16.146Z,52.57
2018-02-15T12:34:45.250Z,51.62
2018-02-15T12:37:13.272Z,52.62
2018-02-15T12:39:41.608Z,51.76
2018-02-15T12:42:09.324Z,51.60
2018-02-15T12:44:37.138Z,51.57
2018-02-15T12:47:05.219Z,51.53
2018-02-15T12:49:33.014Z,51.88
2018-02-15T12:52:00.745Z,51.69
2018-02-15T12:54:29.114Z,50.67
2018-02-15T12:56:58.927Z,50.51
2018-02-15T12:59:26.723Z,49.04
2018-02-15T13:01:54.508Z,49.20
2018-02-15T13:04:22.226Z,50.69
2018-02-15T13:06:49.934Z,51.23
2018-02-15T13:09:17.705Z,51.33
2018-02-15T13:11:45.488Z,50.70
2018-02-15T13:14:13.525Z,50.76
2018-02-15T13:16:52.986Z,49.92
2018-02-15T13:19:32.447Z,49.89
2018-02-15T13:22:00.210Z,50.78
2018-02-15T13:24:28.013Z,49.78
2018-02-15T13:26:55.752Z,48.77
2018-02-15T13:29:23.456Z,49.24
2018-02-15T13:31:51.294Z,50.05
2018-02-15T13:34:18.964Z,50.11
2018-02-15T13:36:46.677Z,50.97
2018-02-15T13:39:15.050Z,50.46
2018-02-15T13:41:42.769Z,50.51
2018-02-15T13:44:10.548Z,50.96
2018-02-15T13:46:39.185Z,52.19
2018-02-15T13:49:06.951Z,51.23
2018-02-15T13:51:35.418Z,52.29
2018-02-15T13:54:03.496Z,51.06
2018-02-15T13:56:31.589Z,50.86
2018-02-15T13:58:59.352Z,50.89
2018-02-15T14:01:27.855Z,50.71
2018-02-15T14:03:55.656Z,50.27
2018-02-15T14:06:23.437Z,50.53
2018-02-15T14:08:51.172Z,50.75
2018-02-15T14:11:19.010Z,51.78
2018-02-15T14:13:46.825Z,51.10
2018-02-15T14:16:14.539Z,51.36
2018-02-15T14:18:42.929Z,51.79
2018-02-15T14:21:10.770Z,52.70
2018-02-15T14:23:38.542Z,52.46
2018-02-15T14:26:06.318Z,53.72
2018-02-15T14:28:34.065Z,53.27
2018-02-15T14:31:02.456Z,53.43
2018-02-15T14:33:30.598Z,52.80
2018-02-15T14:35:59.531Z,52.61
2018-02-15T14:38:27.209Z,54.75
2018-02-15T14:40:54.977Z,53.47
2018-02-15T14:43:22.953Z,53.94
2018-02-15T14:45:50.727Z,53.80
2018-02-15T14:48:18.468Z,54.49
2018-02-15T14:50:46.445Z,54.58
2018-02-15T14:53:14.184Z,55.16
2018-02-15T14:55:41.918Z,54.53
2018-02-15T14:58:09.714Z,54.86
2018-02-15T15:00:37.530Z,55.65
2018-02-15T15:03:05.335Z,56.71
2018-02-15T15:05:34.194Z,56.20
2018-02-15T15:08:01.925Z,56.71
2018-02-15T15:10:29.681Z,56.52
2018-02-15T15:12:57.526Z,56.50
2018-02-15T15:15:25.285Z,55.16
2018-02-15T15:17:53.040Z,55.83
2018-02-15T15:20:20.834Z,58.64
2018-02-15T15:22:48.674Z,59.02
2018-02-15T15:25:16.482Z,56.66
2018-02-15T15:27:44.348Z,57.92
2018-02-15T15:30:12.189Z,58.56
2018-02-15T15:32:40.127Z,58.25
2018-02-15T15:35:08.142Z,57.82
2018-02-15T15:37:36.284Z,61.16
2018-02-15T15:40:04.062Z,61.81
2018-02-15T15:42:31.995Z,62.17
2018-02-15T15:44:59.766Z,62.59
2018-02-15T15:47:27.595Z,62.93
2018-02-15T15:49:56.680Z,62.28
2018-02-15T15:52:24.474Z,62.92
2018-02-15T15:54:52.241Z,63.45
2018-02-15T15:57:20.042Z,63.86
2018-02-15T15:59:47.896Z,64.36
2018-02-15T16:02:15.713Z,65.13
2018-02-15T16:04:43.954Z,67.02
2018-02-15T16:07:12.719Z,68.59
2018-02-15T16:09:41.635Z,67.82
2018-02-15T16:12:09.769Z,67.52
2018-02-15T16:14:37.667Z,65.03
2018-02-15T16:17:05.578Z,65.99
2018-02-15T16:19:33.354Z,67.86
2018-02-15T16:22:01.399Z,66.42
2018-02-15T16:24:29.214Z,66.52
2018-02-15T16:26:57.035Z,66.72
2018-02-15T16:29:24.851Z,66.23
2018-02-15T16:31:52.758Z,65.63
2018-02-15T16:34:20.588Z,65.72
2018-02-15T16:36:50.723Z,66.10
2018-02-15T16:39:18.613Z,65.33
2018-02-15T16:41:48.069Z,63.79
2018-02-15T16:44:16.500Z,63.64
2018-02-15T16:46:45.020Z,63.62
2018-02-15T16:49:13.264Z,67.00
2018-02-15T16:51:41.104Z,68.91
2018-02-15T16:54:08.964Z,69.38
2018-02-15T16:56:38.140Z,69.23
2018-02-15T16:59:06.708Z,70.65
2018-02-15T17:01:35.514Z,71.37
2018-02-15T17:04:03.362Z,71.17
2018-02-15T17:06:31.327Z,70.54
2018-02-15T17:08:59.320Z,69.13
2018-02-15T17:11:27.219Z,68.93
2018-02-15T17:13:55.460Z,69.95
2018-02-15T17:16:25.642Z,71.43
2018-02-15T17:18:53.928Z,72.81
2018-02-15T17:21:23.062Z,72.81
2018-02-15T17:23:50.778Z,74.14
2018-02-15T17:26:19.029Z,73.79
2018-02-15T17:28:47.115Z,73.40
2018-02-15T17:31:15.729Z,72.86
2018-02-15T17:33:43.548Z,73.89
2018-02-15T17:36:11.521Z,74.90
2018-02-15T17:38:39.581Z,75.84
2018-02-15T17:41:09.027Z,77.23
2018-02-15T17:43:37.219Z,78.06
2018-02-15T17:46:07.801Z,78.27
2018-02-15T17:48:36.827Z,77.90
2018-02-15T17:51:04.682Z,77.21
2018-02-15T17:53:32.554Z,77.36
2018-02-15T17:56:00.604Z,76.84
2018-02-15T17:58:28.485Z,77.39
2018-02-15T18:00:56.368Z,76.59
2018-02-15T18:03:25.030Z,76.44
2018-02-15T18:05:52.848Z,77.23
2018-02-15T18:08:20.624Z,79.19
2018-02-15T18:10:48.336Z,79.75
2018-02-15T18:13:16.110Z,79.71
2018-02-15T18:15:44.358Z,79.76
2018-02-15T18:18:12.162Z,79.44
2018-02-15T18:20:40.006Z,81.56
2018-02-15T18:23:08.850Z,81.53
2018-02-15T18:25:36.734Z,81.34
2018-02-15T18:28:04.623Z,79.09
2018-02-15T18:30:32.420Z,78.22
2018-02-15T18:33:00.221Z,79.02
2018-02-15T18:35:28.997Z,80.42
2018-02-15T18:37:56.856Z,81.01
2018-02-15T18:40:24.589Z,80.16
2018-02-15T18:42:52.496Z,81.18
2018-02-15T18:45:21.288Z,81.43
2018-02-15T18:47:49.210Z,82.79
2018-02-15T18:50:17.036Z,84.23
2018-02-15T18:52:44.827Z,84.91
2018-02-15T18:55:12.848Z,85.20
2018-02-15T18:57:42.161Z,85.92
2018-02-15T19:00:10.093Z,86.34
2018-02-15T19:02:37.948Z,87.77
2018-02-15T19:05:05.714Z,88.36
2018-02-15T19:07:33.570Z,88.67
2018-02-15T19:10:01.523Z,88.67
2018-02-15T19:12:29.706Z,88.07
2018-02-15T19:14:57.815Z,88.28
2018-02-15T19:17:25.802Z,87.63
2018-02-15T19:19:53.945Z,87.30
2018-02-15T19:22:23.050Z,87.38
2018-02-15T19:24:51.685Z,86.32
2018-02-15T19:27:19.700Z,87.56
2018-02-15T19:29:49.524Z,88.55
2018-02-15T19:32:20.198Z,89.33
2018-02-15T19:34:48.003Z,89.85
2018-02-15T19:37:16.344Z,89.45
2018-02-15T19:39:44.953Z,88.98
2018-02-15T19:42:12.800Z,89.22
2018-02-15T19:44:40.666Z,88.45
2018-02-15T19:47:09.958Z,87.02
2018-02-15T19:49:38.775Z,86.12
2018-02-15T19:52:07.125Z,86.08
2018-02-15T19:54:36.501Z,86.72
2018-02-15T19:57:05.370Z,87.15
2018-02-15T19:59:33.415Z,88.01
2018-02-15T20:02:01.865Z,88.17
2018-02-15T20:04:29.977Z,88.65
2018-02-15T20:06:58.986Z,88.88
2018-02-15T20:09:27.613Z,89.42
2018-02-15T20:11:55.875Z,89.71
2018-02-15T20:14:24.241Z,89.75
2018-02-15T20:16:52.808Z,90.03
2018-02-15T20:19:22.192Z,90.68
2018-02-15T20:21:51.452Z,90.64
2018-02-15T20:24:19.869Z,90.07
2018-02-15T20:26:53.421Z,89.11
2018-02-15T20:29:21.333Z,88.39
2018-02-15T20:31:49.229Z,87.32
2018-02-15T20:34:17.477Z,87.79
2018-02-15T20:36:46.354Z,87.06
2018-02-15T20:39:19.818Z,87.23
2018-02-15T20:41:47.817Z,87.13
2018-02-15T20:44:15.679Z,87.38
2018-02-15T20:46:44.598Z,88.33
2018-02-15T20:49:18.045Z,89.27
2018-02-15T20:51:51.468Z,89.41
2018-02-15T20:54:24.783Z,90.01
2018-02-15T20:56:52.808Z,90.56
2018-02-15T20:59:20.702Z,90.73
2018-02-15T21:01:48.456Z,90.87
2018-02-15T21:04:16.260Z,90.65
2018-02-15T21:06:44.008Z,89.47
2018-02-15T21:09:11.989Z,89.17
2018-02-15T21:11:39.828Z,90.01
2018-02-15T21:14:07.659Z,90.73
2018-02-15T21:16:35.517Z,90.12
2018-02-15T21:19:03.976Z,89.74
2018-02-15T21:21:32.030Z,88.93
2018-02-15T21:23:59.874Z,88.56
2018-02-15T21:26:27.635Z,88.19
2018-02-15T21:28:56.206Z,87.94
2018-02-15T21:31:23.951Z,87.83
2018-02-15T21:33:51.937Z,87.76
2018-02-15T21:36:19.661Z,87.35
2018-02-15T21:38:47.437Z,87.85
2018-02-15T21:41:15.217Z,88.45
2018-02-15T21:43:42.949Z,87.33
2018-02-15T21:46:10.645Z,86.94
2018-02-15T21:48:38.408Z,87.56
2018-02-15T21:51:06.096Z,87.92
2018-02-15T21:53:33.880Z,88.70
2018-02-15T21:56:01.622Z,89.10
2018-02-15T21:58:29.378Z,88.93
2018-02-15T22:00:57.131Z,88.90
2018-02-15T22:03:24.838Z,89.03
2018-02-15T22:05:52.596Z,89.55
2018-02-15T22:08:20.320Z,88.73
2018-02-15T22:10:48.104Z,88.41
2018-02-15T22:13:15.878Z,88.29
2018-02-15T22:15:43.588Z,88.01
2018-02-15T22:18:11.366Z,88.00
2018-02-15T22:20:39.129Z,87.98
2018-02-15T22:23:06.892Z,88.10
2018-02-15T22:25:34.661Z,88.43
2018-02-15T22:28:02.403Z,88.25
2018-02-15T22:30:30.188Z,88.58
2018-02-15T22:32:57.916Z,88.40
2018-02-15T22:35:25.697Z,90.06
2018-02-15T22:37:53.453Z,90.78
2018-02-15T22:40:21.226Z,90.72
2018-02-15T22:42:48.961Z,91.91
2018-02-15T22:45:16.739Z,92.18
2018-02-15T22:47:44.442Z,91.57
2018-02-15T22:50:12.225Z,91.06
2018-02-15T22:52:39.965Z,91.10
2018-02-15T22:55:07.713Z,91.13
2018-02-15T22:57:35.429Z,90.34
2018-02-15T23:00:03.318Z,89.83
2018-02-15T23:02:30.994Z,89.29
2018-02-15T23:04:58.732Z,89.55
2018-02-15T23:07:26.443Z,89.86
2018-02-15T23:09:54.208Z,90.11
2018-02-15T23:12:21.974Z,90.08
2018-02-15T23:14:50.677Z,90.91
2018-02-15T23:17:18.371Z,91.52
2018-02-15T23:19:46.203Z,91.75
2018-02-15T23:22:13.995Z,92.26
2018-02-15T23:24:41.736Z,92.34
2018-02-15T23:27:09.418Z,92.18
2018-02-15T23:29:37.151Z,92.42
2018-02-15T23:32:04.857Z,92.46
2018-02-15T23:34:32.568Z,91.99
2018-02-15T23:37:00.348Z,91.94
2018-02-15T23:39:28.106Z,91.46
2018-02-15T23:41:55.812Z,91.34
2018-02-15T23:44:23.563Z,91.36
2018-02-15T23:46:51.287Z,91.32
2018-02-15T23:49:19.025Z,91.54
2018-02-15T23:51:46.735Z,91.94
2018-02-15T23:54:14.477Z,92.05
2018-02-15T23:56:42.151Z,92.26
2018-02-15T23:59:09.887Z,91.97
